createdAt,value
2022-12-17T00:09:13.553Z,7.0
2022-12-17T00:23:13.570Z,6.9
2022-12-17T00:37:13.562Z,6.9
2022-12-17T00:51:13.594Z,7.0
2022-12-17T01:05:13.575Z,6.7
2022-12-17T01:19:13.566Z,6.7
2022-12-17T01:33:13.591Z,6.6
2022-12-17T01:47:13.584Z,6.1
2022-12-17T02:01:13.671Z,5.9
2022-12-17T02:15:13.833Z,6.1
2022-12-17T02:29:13.634Z,6.3
2022-12-17T02:43:13.643Z,5.9
2022-12-17T02:57:13.644Z,5.2
2022-12-17T03:11:13.659Z,5.5
2022-12-17T03:25:13.628Z,5.4
2022-12-17T03:39:13.676Z,5.4
2022-12-17T03:53:13.657Z,4.9
2022-12-17T04:07:13.695Z,4.9
2022-12-17T04:21:13.702Z,5.1
2022-12-17T04:35:13.684Z,5.6
2022-12-17T04:49:13.670Z,5.9
2022-12-17T05:03:13.736Z,5.9
2022-12-17T05:17:13.713Z,6.1
2022-12-17T05:31:13.809Z,6.4
2022-12-17T05:45:13.689Z,6.3
2022-12-17T05:59:13.693Z,5.7
2022-12-17T06:13:13.709Z,5.4
2022-12-17T06:27:13.749Z,5.2
2022-12-17T06:42:13.761Z,5.3
2022-12-17T06:57:13.764Z,5.9
2022-12-17T07:12:13.809Z,6.0
2022-12-17T07:27:13.756Z,6.2
2022-12-17T07:42:13.738Z,6.5
2022-12-17T07:57:13.767Z,6.6
2022-12-17T08:12:13.881Z,6.6
2022-12-17T08:27:13.850Z,6.7
2022-12-17T08:42:13.857Z,6.6
2022-12-17T08:57:22.543Z,6.8
2022-12-17T09:12:13.868Z,6.8
2022-12-17T09:27:13.891Z,6.8
2022-12-17T09:42:13.905Z,7.0
2022-12-17T09:57:13.929Z,7.2
2022-12-17T10:12:13.925Z,7.3
2022-12-17T10:27:13.921Z,7.8
2022-12-17T10:42:13.966Z,8.0
2022-12-17T10:57:13.945Z,8.3
2022-12-17T11:12:13.949Z,8.9
2022-12-17T11:27:13.960Z,9.3
2022-12-17T11:42:13.973Z,9.3
2022-12-17T11:57:13.995Z,9.5
2022-12-17T12:13:13.968Z,8.8
2022-12-17T12:29:13.955Z,8.9
2022-12-17T12:44:13.986Z,8.7
2022-12-17T12:59:14.017Z,8.6
2022-12-17T13:14:14.010Z,8.6
2022-12-17T13:29:14.022Z,8.7
2022-12-17T13:44:14.017Z,8.5
2022-12-17T13:59:14.033Z,8.8
2022-12-17T14:14:14.082Z,8.6
2022-12-17T14:29:14.092Z,8.3
2022-12-17T14:44:17.224Z,8.2
2022-12-17T15:00:14.104Z,8.0
2022-12-17T15:15:14.112Z,7.7
2022-12-17T15:30:14.115Z,7.4
2022-12-17T15:45:14.107Z,7.2
2022-12-17T16:00:14.104Z,7.5
2022-12-17T16:14:14.136Z,7.9
2022-12-17T16:28:14.115Z,7.7
2022-12-17T16:42:14.155Z,7.6
2022-12-17T16:56:14.140Z,7.3
2022-12-17T17:10:14.166Z,7.2
2022-12-17T17:24:18.625Z,7.0
2022-12-17T17:40:14.191Z,7.2
2022-12-17T17:54:14.574Z,7.4
2022-12-17T18:08:14.210Z,7.7
2022-12-17T18:22:14.192Z,7.4
2022-12-17T18:36:14.225Z,7.1
2022-12-17T18:50:14.201Z,6.9
2022-12-17T19:04:14.237Z,6.8
2022-12-17T19:18:14.305Z,6.5
2022-12-17T19:32:14.289Z,6.6
2022-12-17T19:46:14.354Z,6.2
2022-12-17T20:00:14.299Z,5.3
2022-12-17T20:14:14.364Z,5.2
2022-12-17T20:38:14.313Z,5.5
2022-12-17T20:52:14.334Z,5.4
2022-12-17T21:06:14.331Z,5.4
2022-12-17T21:20:14.311Z,5.5
2022-12-17T21:34:14.371Z,5.5
2022-12-17T21:48:15.294Z,5.6
2022-12-17T22:02:14.491Z,5.7
2022-12-17T22:16:14.441Z,5.7
2022-12-17T22:30:14.403Z,5.6
2022-12-17T22:44:40.157Z,5.5
2022-12-17T22:58:14.449Z,5.4
2022-12-17T23:12:14.430Z,5.3
2022-12-17T23:26:14.496Z,5.2
2022-12-17T23:40:14.443Z,4.9
2022-12-17T23:54:14.462Z,4.3
